Time;durP1;ratioP1;P1;durP2;ratioP2;P2;SDS_P1;SDS_P2;PMS_P1;PMS_P2;Temp;Humidity;BMP_temperature;BMP_pressure;BME280_temperature;BME280_humidity;BME280_pressure;Samples;Min_cycle;Max_cycle;Signal;HPM_P1;HPM_P2
2021/07/22 00:00:34;;;;;;;162.23;115.37;;;;;;;;;;4436870;32;20061;-85
2021/07/22 00:03:03;;;;;;;196.87;137.02;;;;;;;;;;4433016;32;20098;-85
2021/07/22 00:05:32;;;;;;;196.95;133.82;;;;;;;;;;4439880;32;20156;-85
2021/07/22 00:08:01;;;;;;;187.80;129.63;;;;;;;;;;4436794;32;20168;-85
2021/07/22 00:10:30;;;;;;;151.05;107.68;;;;;;;;;;4437984;32;20046;-85
2021/07/22 00:12:58;;;;;;;154.85;113.10;;;;;;;;;;4437511;32;20087;-86
2021/07/22 00:15:27;;;;;;;156.93;115.05;;;;;;;;;;4438869;32;20038;-85
2021/07/22 00:17:56;;;;;;;158.60;115.12;;;;;;;;;;4432690;32;20378;-84
2021/07/22 00:20:24;;;;;;;165.60;116.00;;;;;;;;;;4414813;32;20050;-85
2021/07/22 00:22:52;;;;;;;155.82;114.62;;;;;;;;;;4435671;32;20137;-85
2021/07/22 00:25:21;;;;;;;168.35;132.48;;;;;;;;;;4437382;32;20081;-85
2021/07/22 00:27:50;;;;;;;164.07;124.93;;;;;;;;;;4438883;32;20121;-85
2021/07/22 00:30:18;;;;;;;169.65;125.30;;;;;;;;;;4434166;32;20432;-85
2021/07/22 00:32:47;;;;;;;154.75;126.97;;;;;;;;;;4438301;32;20474;-84
2021/07/22 00:35:15;;;;;;;141.52;118.57;;;;;;;;;;4435872;32;20566;-85
2021/07/22 00:37:44;;;;;;;192.43;127.45;;;;;;;;;;4439071;32;20070;-84
2021/07/22 00:40:13;;;;;;;201.70;131.73;;;;;;;;;;4436671;32;20093;-86
2021/07/22 00:42:57;;;;;;;201.93;137.68;;;;;;;;;;4440734;32;20586;-85
2021/07/22 00:45:27;;;;;;;200.82;135.25;;;;;;;;;;4424988;32;20046;-85
2021/07/22 00:47:58;;;;;;;203.93;134.87;;;;;;;;;;4434195;32;20073;-85
2021/07/22 00:50:27;;;;;;;194.85;131.55;;;;;;;;;;4439608;32;20061;-86
2021/07/22 00:53:00;;;;;;;197.18;131.00;;;;;;;;;;4440107;32;20069;-86
2021/07/22 00:55:30;;;;;;;153.95;107.12;;;;;;;;;;4440023;32;20136;-86
2021/07/22 00:57:58;;;;;;;151.80;105.40;;;;;;;;;;4438436;32;20072;-86
2021/07/22 01:00:28;;;;;;;156.70;107.63;;;;;;;;;;4437159;32;20050;-85
2021/07/22 01:02:57;;;;;;;158.82;119.87;;;;;;;;;;4435800;32;20072;-86
2021/07/22 01:05:27;;;;;;;167.45;119.57;;;;;;;;;;4436619;32;20149;-86
2021/07/22 01:07:56;;;;;;;165.37;119.45;;;;;;;;;;4434913;32;20105;-85
2021/07/22 01:10:25;;;;;;;169.90;121.43;;;;;;;;;;4438035;32;20081;-86
2021/07/22 01:12:54;;;;;;;167.75;122.13;;;;;;;;;;4430616;32;20149;-85
2021/07/22 01:15:23;;;;;;;155.57;109.78;;;;;;;;;;4434804;32;20030;-85
2021/07/22 01:17:52;;;;;;;153.57;109.05;;;;;;;;;;4436063;32;20072;-85
2021/07/22 01:20:23;;;;;;;152.18;109.35;;;;;;;;;;4437610;32;20421;-85
2021/07/22 01:22:54;;;;;;;156.35;108.03;;;;;;;;;;4437443;32;20146;-86
2021/07/22 01:25:23;;;;;;;182.02;122.03;;;;;;;;;;4437313;32;20130;-86
2021/07/22 01:27:52;;;;;;;182.57;122.45;;;;;;;;;;4437167;32;20089;-85
2021/07/22 01:30:21;;;;;;;176.50;119.82;;;;;;;;;;4434363;32;20279;-86
2021/07/22 01:32:49;;;;;;;182.52;123.35;;;;;;;;;;4434046;32;20057;-85
2021/07/22 01:35:19;;;;;;;136.88;101.07;;;;;;;;;;4437064;32;20038;-86
2021/07/22 01:37:51;;;;;;;134.18;99.82;;;;;;;;;;4432747;32;20081;-85
2021/07/22 01:40:20;;;;;;;138.52;100.05;;;;;;;;;;4437405;32;20396;-85
2021/07/22 01:42:49;;;;;;;141.10;111.28;;;;;;;;;;4437782;32;20527;-85
2021/07/22 01:45:18;;;;;;;139.45;111.72;;;;;;;;;;4437780;32;20095;-85
2021/07/22 01:47:47;;;;;;;141.73;111.90;;;;;;;;;;4437467;32;20034;-86
2021/07/22 01:50:15;;;;;;;142.98;111.18;;;;;;;;;;4431322;32;20077;-85
2021/07/22 01:52:44;;;;;;;139.98;110.55;;;;;;;;;;4436182;32;20045;-86
2021/07/22 01:55:13;;;;;;;173.07;119.25;;;;;;;;;;4435926;32;20072;-84
2021/07/22 01:57:43;;;;;;;163.85;118.13;;;;;;;;;;4436726;32;20061;-85
2021/07/22 02:00:12;;;;;;;167.50;118.32;;;;;;;;;;4440587;32;20362;-85
2021/07/22 02:02:43;;;;;;;138.37;100.78;;;;;;;;;;4437023;32;20034;-85
2021/07/22 02:05:14;;;;;;;141.07;103.60;;;;;;;;;;4435370;32;20092;-85
2021/07/22 02:07:44;;;;;;;147.50;102.90;;;;;;;;;;4435233;32;20094;-86
2021/07/22 02:10:14;;;;;;;176.60;122.87;;;;;;;;;;4436164;32;20050;-85
2021/07/22 02:12:43;;;;;;;175.30;122.53;;;;;;;;;;4433510;32;20136;-86
2021/07/22 02:15:12;;;;;;;176.37;124.95;;;;;;;;;;4431901;32;20378;-85
2021/07/22 02:17:41;;;;;;;179.40;122.07;;;;;;;;;;4437531;32;20049;-85
2021/07/22 02:20:10;;;;;;;154.35;113.53;;;;;;;;;;4432289;32;20081;-85
2021/07/22 02:22:39;;;;;;;156.07;113.75;;;;;;;;;;4436444;32;20119;-85
2021/07/22 02:25:09;;;;;;;132.60;109.50;;;;;;;;;;4439637;32;20054;-85
2021/07/22 02:27:38;;;;;;;128.87;107.07;;;;;;;;;;4430241;32;20076;-85
2021/07/22 02:30:07;;;;;;;131.37;108.63;;;;;;;;;;4439495;32;20041;-85
2021/07/22 02:32:35;;;;;;;174.32;117.00;;;;;;;;;;4439355;32;20108;-83
2021/07/22 02:35:05;;;;;;;171.87;116.47;;;;;;;;;;4435140;32;20126;-85
2021/07/22 02:37:36;;;;;;;167.30;117.35;;;;;;;;;;4435484;32;20346;-85
2021/07/22 02:40:06;;;;;;;175.87;119.68;;;;;;;;;;4442538;32;20042;-84
2021/07/22 02:42:34;;;;;;;173.35;121.32;;;;;;;;;;4441412;32;20092;-85
2021/07/22 02:45:07;;;;;;;188.10;126.93;;;;;;;;;;4445510;32;20075;-84
2021/07/22 02:47:36;;;;;;;195.10;132.93;;;;;;;;;;4437890;32;20038;-85
2021/07/22 02:50:05;;;;;;;159.65;112.18;;;;;;;;;;4441155;32;20054;-84
2021/07/22 02:52:34;;;;;;;164.37;112.40;;;;;;;;;;4438885;32;20113;-84
2021/07/22 02:55:03;;;;;;;163.65;107.70;;;;;;;;;;4442108;32;20045;-84
2021/07/22 02:57:32;;;;;;;165.68;116.03;;;;;;;;;;4434145;32;20155;-84
2021/07/22 03:00:00;;;;;;;163.87;114.40;;;;;;;;;;4439896;32;20516;-85
2021/07/22 03:02:29;;;;;;;151.55;111.97;;;;;;;;;;4438938;32;20065;-84
2021/07/22 03:04:58;;;;;;;137.20;109.87;;;;;;;;;;4440044;32;20452;-85
2021/07/22 03:07:27;;;;;;;140.35;112.00;;;;;;;;;;4436342;32;20061;-84
2021/07/22 03:09:58;;;;;;;146.35;112.90;;;;;;;;;;4437082;32;20058;-85
2021/07/22 07:55:27;;;;;;;166.52;116.97;;;;;;;;;;4578667;27;20041;-84
2021/07/22 07:57:57;;;;;;;162.85;113.88;;;;;;;;;;4303097;33;20045;-87
2021/07/22 08:00:25;;;;;;;206.15;142.25;;;;;;;;;;4304788;33;20053;-86
2021/07/22 08:02:58;;;;;;;183.23;131.80;;;;;;;;;;4303580;33;20139;-86
2021/07/22 08:05:26;;;;;;;174.38;132.98;;;;;;;;;;4302960;33;20072;-86
2021/07/22 08:07:56;;;;;;;131.80;116.37;;;;;;;;;;4299581;33;20136;-87
2021/07/22 08:10:24;;;;;;;145.32;122.78;;;;;;;;;;4300835;33;20061;-86
2021/07/22 08:12:52;;;;;;;142.25;125.07;;;;;;;;;;4298404;33;20491;-86
2021/07/22 08:15:21;;;;;;;143.15;124.40;;;;;;;;;;4295939;33;20268;-86
2021/07/22 08:17:50;;;;;;;144.60;122.72;;;;;;;;;;4303765;33;20087;-86
2021/07/22 08:20:18;;;;;;;176.87;131.80;;;;;;;;;;4301964;33;20111;-86
2021/07/22 08:22:47;;;;;;;185.43;135.88;;;;;;;;;;4296302;33;20040;-86
2021/07/22 08:25:20;;;;;;;181.15;129.07;;;;;;;;;;4294604;33;20438;-86
2021/07/22 08:27:49;;;;;;;172.37;119.37;;;;;;;;;;4303054;33;20049;-85
2021/07/22 08:30:18;;;;;;;156.70;106.15;;;;;;;;;;4305281;33;20068;-86
2021/07/22 08:32:47;;;;;;;149.00;98.37;;;;;;;;;;4297410;33;20088;-85
2021/07/22 08:35:16;;;;;;;144.70;102.47;;;;;;;;;;4302546;33;20067;-86
2021/07/22 08:37:44;;;;;;;141.80;98.10;;;;;;;;;;4301780;33;20088;-86
2021/07/22 08:40:13;;;;;;;141.48;100.95;;;;;;;;;;4305954;33;20143;-86
2021/07/22 08:42:44;;;;;;;152.20;108.43;;;;;;;;;;4286562;33;20048;-86
2021/07/22 08:45:14;;;;;;;135.68;95.65;;;;;;;;;;4302693;33;20123;-86
2021/07/22 08:47:43;;;;;;;143.30;95.28;;;;;;;;;;4299508;33;20414;-85
2021/07/22 08:50:13;;;;;;;125.70;106.87;;;;;;;;;;4300714;33;20248;-86
2021/07/22 08:52:42;;;;;;;136.10;114.07;;;;;;;;;;4299470;33;20107;-86
2021/07/22 08:55:11;;;;;;;135.50;116.25;;;;;;;;;;4305662;33;20056;-85
2021/07/22 08:57:40;;;;;;;187.37;130.35;;;;;;;;;;4297945;33;20632;-86
2021/07/22 09:00:10;;;;;;;156.75;113.12;;;;;;;;;;4301152;33;20045;-86
2021/07/22 09:02:38;;;;;;;206.85;139.90;;;;;;;;;;4301501;33;20122;-85
2021/07/22 09:05:08;;;;;;;203.95;141.80;;;;;;;;;;4295522;33;20450;-86
2021/07/22 09:07:37;;;;;;;202.25;139.15;;;;;;;;;;4298341;33;20487;-86
2021/07/22 09:10:05;;;;;;;170.45;126.78;;;;;;;;;;4302846;33;20151;-86
2021/07/22 09:12:37;;;;;;;158.45;115.97;;;;;;;;;;4299566;33;20087;-84
2021/07/22 09:15:07;;;;;;;157.02;116.55;;;;;;;;;;4300748;33;20432;-83
2021/07/22 09:17:55;;;;;;;153.98;114.00;;;;;;;;;;4299500;33;20124;-84
2021/07/22 09:20:37;;;;;;;160.60;114.72;;;;;;;;;;4300695;33;20430;-84
2021/07/22 09:23:06;;;;;;;163.90;115.15;;;;;;;;;;4278933;33;20119;-84
2021/07/22 09:25:42;;;;;;;158.75;115.15;;;;;;;;;;4301351;33;20041;-84
2021/07/22 09:28:27;;;;;;;176.70;121.72;;;;;;;;;;4286120;33;20526;-84
2021/07/22 09:31:01;;;;;;;151.32;90.65;;;;;;;;;;4302165;33;20640;-84
2021/07/22 09:33:47;;;;;;;132.65;99.43;;;;;;;;;;4304536;33;20052;-84
2021/07/22 09:36:19;;;;;;;188.60;107.43;;;;;;;;;;4288453;33;20916;-84
2021/07/22 09:38:47;;;;;;;162.10;98.60;;;;;;;;;;4302786;33;20456;-84
2021/07/22 09:41:20;;;;;;;196.85;110.30;;;;;;;;;;4290947;33;20111;-84
2021/07/22 09:43:48;;;;;;;188.05;106.82;;;;;;;;;;4303459;33;20470;-84
2021/07/22 09:46:17;;;;;;;193.77;108.43;;;;;;;;;;4301782;33;20174;-84
2021/07/22 09:49:04;;;;;;;164.23;97.62;;;;;;;;;;4301571;33;20560;-85
2021/07/22 09:51:37;;;;;;;152.30;93.45;;;;;;;;;;4297560;33;20072;-84
2021/07/22 09:54:08;;;;;;;164.57;96.93;;;;;;;;;;4303181;33;20111;-84
2021/07/22 09:56:37;;;;;;;151.73;93.32;;;;;;;;;;4303610;33;20088;-84
2021/07/22 09:59:08;;;;;;;158.02;98.85;;;;;;;;;;4301527;33;20040;-84
2021/07/22 10:01:44;;;;;;;163.37;101.12;;;;;;;;;;4284637;33;20521;-84
2021/07/22 10:04:14;;;;;;;144.32;112.03;;;;;;;;;;4302768;33;20439;-84
2021/07/22 10:06:46;;;;;;;151.73;115.50;;;;;;;;;;4302469;33;20075;-84
2021/07/22 10:09:18;;;;;;;142.15;111.82;;;;;;;;;;4301628;33;20452;-84
2021/07/22 10:11:47;;;;;;;151.18;116.93;;;;;;;;;;4300816;33;20536;-84
2021/07/22 10:14:18;;;;;;;158.60;116.97;;;;;;;;;;4304163;33;20077;-84
2021/07/22 10:16:50;;;;;;;243.70;130.87;;;;;;;;;;4304459;33;20120;-84
2021/07/22 10:19:21;;;;;;;243.65;130.27;;;;;;;;;;4304315;33;20057;-85
2021/07/22 10:21:49;;;;;;;247.02;137.82;;;;;;;;;;4299500;33;20064;-85
2021/07/22 10:24:20;;;;;;;215.55;135.23;;;;;;;;;;4297364;33;20474;-85
2021/07/22 10:26:49;;;;;;;43.87;37.47;;;;;;;;;;4300618;33;20131;-84
2021/07/22 10:29:18;;;;;;;19.37;7.97;;;;;;;;;;4274266;33;20756;-85
2021/07/22 10:31:50;;;;;;;22.48;8.07;;;;;;;;;;4301067;33;20086;-84
2021/07/22 10:34:20;;;;;;;17.63;7.17;;;;;;;;;;4301329;33;20479;-85
2021/07/22 10:36:48;;;;;;;17.45;7.37;;;;;;;;;;4300995;33;20049;-84
2021/07/22 10:39:17;;;;;;;17.65;6.90;;;;;;;;;;4300608;33;20067;-85
2021/07/22 10:41:46;;;;;;;17.17;6.75;;;;;;;;;;4300338;33;20132;-85
2021/07/22 10:44:20;;;;;;;29.10;9.25;;;;;;;;;;4303288;33;20092;-85
2021/07/22 10:46:56;;;;;;;28.60;8.15;;;;;;;;;;4298047;33;20100;-85
2021/07/22 10:49:41;;;;;;;22.30;7.68;;;;;;;;;;4300268;33;20348;-85
2021/07/22 10:52:11;;;;;;;21.42;7.80;;;;;;;;;;4296259;33;20416;-85
2021/07/22 10:54:39;;;;;;;23.55;8.32;;;;;;;;;;4302408;33;20048;-84
2021/07/22 10:57:29;;;;;;;21.45;8.65;;;;;;;;;;4305610;33;20045;-85
2021/07/22 10:59:58;;;;;;;19.62;7.97;;;;;;;;;;4298110;33;20232;-84
2021/07/22 11:02:42;;;;;;;16.15;6.93;;;;;;;;;;4301224;33;20431;-84
2021/07/22 11:05:31;;;;;;;19.00;7.72;;;;;;;;;;4303674;33;20593;-85
2021/07/22 11:08:19;;;;;;;19.80;7.65;;;;;;;;;;4300660;33;20048;-85
2021/07/22 11:10:52;;;;;;;20.08;7.90;;;;;;;;;;4302763;33;20216;-84
2021/07/22 11:13:47;;;;;;;18.10;6.62;;;;;;;;;;4298800;33;20450;-84
2021/07/22 11:16:29;;;;;;;15.93;7.18;;;;;;;;;;4299237;33;20582;-84
2021/07/22 11:19:01;;;;;;;20.00;7.28;;;;;;;;;;4305050;33;20363;-84
2021/07/22 11:21:34;;;;;;;20.50;7.53;;;;;;;;;;4297186;33;20119;-85
2021/07/22 11:24:03;;;;;;;20.75;8.50;;;;;;;;;;4300327;33;20120;-84
2021/07/22 11:26:33;;;;;;;20.20;7.20;;;;;;;;;;4295213;33;20063;-85
2021/07/22 11:29:12;;;;;;;15.75;7.53;;;;;;;;;;4300117;33;20903;-85
2021/07/22 11:32:02;;;;;;;18.37;7.57;;;;;;;;;;4298663;33;20431;-84
2021/07/22 11:34:34;;;;;;;15.85;7.20;;;;;;;;;;4297360;33;20507;-85
2021/07/22 11:37:03;;;;;;;21.42;7.87;;;;;;;;;;4287153;33;20113;-85
2021/07/22 11:39:33;;;;;;;21.08;8.05;;;;;;;;;;4300172;33;20116;-85
2021/07/22 11:42:08;;;;;;;18.92;7.78;;;;;;;;;;4293366;33;20080;-85
2021/07/22 11:44:37;;;;;;;17.10;7.47;;;;;;;;;;4303397;33;20367;-85
2021/07/22 11:47:10;;;;;;;25.62;9.90;;;;;;;;;;4301512;33;20402;-85
2021/07/22 11:49:40;;;;;;;20.23;8.32;;;;;;;;;;4301577;33;20099;-85
2021/07/22 11:52:09;;;;;;;15.80;7.87;;;;;;;;;;4285852;33;20167;-85
2021/07/22 11:54:37;;;;;;;16.42;7.53;;;;;;;;;;4300226;33;20715;-85
2021/07/22 11:57:06;;;;;;;19.75;8.73;;;;;;;;;;4302585;33;20056;-85
2021/07/22 11:59:34;;;;;;;16.83;8.20;;;;;;;;;;4299308;33;20076;-85
2021/07/22 12:02:05;;;;;;;18.08;7.60;;;;;;;;;;4297561;33;20112;-85
2021/07/22 12:04:35;;;;;;;22.98;8.00;;;;;;;;;;4288273;33;20048;-85
2021/07/22 12:07:07;;;;;;;21.17;8.43;;;;;;;;;;4305623;33;20106;-85
2021/07/22 12:09:56;;;;;;;21.05;8.73;;;;;;;;;;4299286;33;20111;-85
2021/07/22 12:12:25;;;;;;;16.70;6.85;;;;;;;;;;4297107;33;20135;-86
2021/07/22 12:15:04;;;;;;;15.95;6.87;;;;;;;;;;4299452;33;20104;-85
2021/07/22 12:17:33;;;;;;;19.50;8.18;;;;;;;;;;4300409;33;20405;-85
2021/07/22 12:20:02;;;;;;;13.52;5.62;;;;;;;;;;4298863;33;20183;-85
2021/07/22 12:22:37;;;;;;;17.77;6.95;;;;;;;;;;4300353;33;20079;-86
2021/07/22 12:25:06;;;;;;;20.33;8.18;;;;;;;;;;4300201;33;20876;-85
2021/07/22 12:27:36;;;;;;;17.67;7.78;;;;;;;;;;4299698;33;20071;-86
2021/07/22 12:30:14;;;;;;;18.48;7.47;;;;;;;;;;4303581;33;20063;-85
2021/07/22 12:32:52;;;;;;;18.10;7.22;;;;;;;;;;4294998;33;20199;-85
2021/07/22 12:35:29;;;;;;;18.23;7.15;;;;;;;;;;4297160;33;20399;-85
2021/07/22 12:37:58;;;;;;;14.85;7.50;;;;;;;;;;4299385;33;20079;-86
2021/07/22 12:40:32;;;;;;;20.65;7.57;;;;;;;;;;4302292;33;20058;-85
2021/07/22 12:43:02;;;;;;;20.25;8.00;;;;;;;;;;4288233;33;20119;-85
2021/07/22 12:45:30;;;;;;;17.20;6.12;;;;;;;;;;4301927;33;20174;-85
2021/07/22 12:47:59;;;;;;;15.73;6.62;;;;;;;;;;4299631;33;20087;-85
2021/07/22 12:50:35;;;;;;;16.23;6.78;;;;;;;;;;4302623;33;20079;-84
2021/07/22 12:53:05;;;;;;;18.50;7.85;;;;;;;;;;4301337;33;20317;-85
2021/07/22 12:55:35;;;;;;;16.45;6.95;;;;;;;;;;4298391;33;20478;-84
2021/07/22 12:58:04;;;;;;;17.80;6.97;;;;;;;;;;4300044;33;20040;-85
2021/07/22 13:00:43;;;;;;;18.17;6.93;;;;;;;;;;4300107;33;20143;-84
2021/07/22 13:03:13;;;;;;;20.50;7.65;;;;;;;;;;4303560;33;20049;-84
2021/07/22 13:05:41;;;;;;;16.60;6.97;;;;;;;;;;4297708;33;20053;-84
2021/07/22 13:08:10;;;;;;;20.33;7.22;;;;;;;;;;4297717;33;20214;-85
2021/07/22 13:10:47;;;;;;;16.95;6.82;;;;;;;;;;4303974;33;20534;-84
2021/07/22 13:13:16;;;;;;;17.98;7.28;;;;;;;;;;4301869;33;20155;-84
2021/07/22 13:15:45;;;;;;;19.87;7.72;;;;;;;;;;4293649;33;20095;-85
2021/07/22 13:18:14;;;;;;;17.67;6.87;;;;;;;;;;4302016;33;20848;-85
2021/07/22 13:20:59;;;;;;;26.62;8.07;;;;;;;;;;4303355;33;20571;-85
2021/07/22 13:23:33;;;;;;;22.77;7.65;;;;;;;;;;4297101;33;20441;-86
2021/07/22 13:26:02;;;;;;;22.10;7.40;;;;;;;;;;4298197;33;20368;-84
2021/07/22 13:28:31;;;;;;;20.73;6.97;;;;;;;;;;4297362;33;20052;-85
2021/07/22 13:31:00;;;;;;;17.48;6.28;;;;;;;;;;4295349;33;20052;-85
2021/07/22 13:33:28;;;;;;;22.30;8.68;;;;;;;;;;4296046;33;20418;-85
2021/07/22 13:35:57;;;;;;;24.65;7.78;;;;;;;;;;4298097;33;20092;-85
2021/07/22 13:38:32;;;;;;;21.30;7.93;;;;;;;;;;4284338;33;20102;-85
2021/07/22 13:41:03;;;;;;;21.45;7.87;;;;;;;;;;4296409;33;20044;-85
2021/07/22 13:43:33;;;;;;;13.80;6.90;;;;;;;;;;4299323;33;20664;-85
2021/07/22 13:46:02;;;;;;;20.98;8.02;;;;;;;;;;4299358;33;20535;-85
2021/07/22 13:48:30;;;;;;;19.20;7.60;;;;;;;;;;4294446;33;20126;-83
2021/07/22 13:51:01;;;;;;;22.62;8.10;;;;;;;;;;4299427;33;20061;-84
2021/07/22 13:53:33;;;;;;;17.87;7.47;;;;;;;;;;4296470;33;20136;-85
2021/07/22 13:56:02;;;;;;;20.75;8.48;;;;;;;;;;4297870;33;20542;-84
2021/07/22 13:58:30;;;;;;;18.52;7.30;;;;;;;;;;4293529;33;20057;-85
2021/07/22 14:01:01;;;;;;;18.42;7.20;;;;;;;;;;4299018;33;20138;-85
2021/07/22 14:03:30;;;;;;;23.55;7.93;;;;;;;;;;4298447;33;20535;-85
2021/07/22 14:05:59;;;;;;;18.58;8.52;;;;;;;;;;4301146;33;20053;-85
2021/07/22 14:08:28;;;;;;;14.98;5.70;;;;;;;;;;4294918;33;20142;-85
2021/07/22 14:10:57;;;;;;;16.55;6.50;;;;;;;;;;4300778;33;20162;-85
2021/07/22 14:13:26;;;;;;;16.17;7.07;;;;;;;;;;4300321;33;20052;-85
2021/07/22 14:15:54;;;;;;;21.35;6.95;;;;;;;;;;4297528;33;20435;-85
2021/07/22 14:18:23;;;;;;;23.20;7.15;;;;;;;;;;4300711;33;20158;-86
2021/07/22 14:20:52;;;;;;;22.50;7.50;;;;;;;;;;4297639;33;20735;-84
2021/07/22 14:23:21;;;;;;;20.85;7.87;;;;;;;;;;4300730;33;20116;-85
2021/07/22 14:25:50;;;;;;;18.90;7.25;;;;;;;;;;4297547;33;20427;-84
2021/07/22 14:28:19;;;;;;;18.92;6.80;;;;;;;;;;4297080;33;20652;-85
2021/07/22 14:30:47;;;;;;;16.23;6.60;;;;;;;;;;4302506;33;20056;-84
2021/07/22 14:33:16;;;;;;;19.98;6.82;;;;;;;;;;4299523;33;20167;-84
2021/07/22 14:35:44;;;;;;;21.12;7.65;;;;;;;;;;4288839;33;20462;-85
2021/07/22 14:38:13;;;;;;;16.55;6.35;;;;;;;;;;4298461;33;20409;-85
2021/07/22 14:40:42;;;;;;;20.62;8.32;;;;;;;;;;4277464;33;20041;-85
2021/07/22 14:43:11;;;;;;;16.62;6.82;;;;;;;;;;4301210;33;20041;-85
2021/07/22 14:45:41;;;;;;;18.60;7.70;;;;;;;;;;4302221;33;20444;-85
2021/07/22 14:48:10;;;;;;;18.37;6.90;;;;;;;;;;4281179;33;22930;-85
2021/07/22 14:50:44;;;;;;;18.58;8.73;;;;;;;;;;4300774;33;20120;-85
2021/07/22 14:53:13;;;;;;;22.48;7.50;;;;;;;;;;4296741;33;20382;-85
2021/07/22 14:55:41;;;;;;;25.35;8.90;;;;;;;;;;4305295;33;20151;-85
2021/07/22 14:58:10;;;;;;;16.40;7.85;;;;;;;;;;4295309;33;20594;-84
2021/07/22 15:00:39;;;;;;;19.35;6.12;;;;;;;;;;4301160;33;20056;-85
2021/07/22 15:03:08;;;;;;;37.08;8.13;;;;;;;;;;4299051;33;20420;-84
2021/07/22 15:05:37;;;;;;;17.92;7.53;;;;;;;;;;4301788;33;20048;-85
2021/07/22 15:08:06;;;;;;;17.27;7.07;;;;;;;;;;4295127;33;20036;-84
2021/07/22 15:10:35;;;;;;;22.42;8.70;;;;;;;;;;4292942;33;20091;-84
2021/07/22 15:13:03;;;;;;;17.42;6.72;;;;;;;;;;4296237;33;20083;-85
2021/07/22 15:15:32;;;;;;;18.67;8.30;;;;;;;;;;4285405;33;20092;-85
2021/07/22 15:18:00;;;;;;;23.58;9.05;;;;;;;;;;4286707;33;20111;-85
2021/07/22 15:20:40;;;;;;;23.77;8.93;;;;;;;;;;4268638;33;20064;-84
2021/07/22 15:23:08;;;;;;;21.70;7.97;;;;;;;;;;4290391;33;20106;-85
2021/07/22 15:25:39;;;;;;;23.17;9.73;;;;;;;;;;4275838;33;20040;-85
2021/07/22 15:28:08;;;;;;;23.95;8.23;;;;;;;;;;4297566;33;20108;-85
2021/07/22 15:30:36;;;;;;;26.85;8.95;;;;;;;;;;4295991;33;20163;-85
2021/07/22 15:33:05;;;;;;;21.37;8.52;;;;;;;;;;4297695;33;20053;-85
2021/07/22 15:35:38;;;;;;;22.35;8.50;;;;;;;;;;4298224;33;20084;-85
2021/07/22 15:38:07;;;;;;;21.83;8.73;;;;;;;;;;4284510;33;20424;-85
2021/07/22 15:40:38;;;;;;;19.60;8.60;;;;;;;;;;4301316;33;20103;-85
2021/07/22 15:43:07;;;;;;;20.00;7.82;;;;;;;;;;4299814;33;20517;-84
2021/07/22 15:45:37;;;;;;;23.27;9.32;;;;;;;;;;4299692;33;20064;-84
2021/07/22 15:48:07;;;;;;;28.92;8.25;;;;;;;;;;4304552;33;20041;-84
2021/07/22 15:50:37;;;;;;;25.37;10.95;;;;;;;;;;4302222;33;20483;-85
2021/07/22 15:53:06;;;;;;;21.62;9.73;;;;;;;;;;4306293;33;20072;-85
2021/07/22 15:55:35;;;;;;;24.70;11.43;;;;;;;;;;4299920;33;20155;-85
2021/07/22 15:58:03;;;;;;;23.62;10.75;;;;;;;;;;4286582;33;20100;-85
2021/07/22 16:00:34;;;;;;;26.62;11.18;;;;;;;;;;4301868;33;20463;-85
2021/07/22 16:03:04;;;;;;;25.52;9.98;;;;;;;;;;4301784;33;20056;-83
2021/07/22 16:05:32;;;;;;;29.55;15.40;;;;;;;;;;4301206;33;20049;-85
2021/07/22 16:08:01;;;;;;;20.95;11.68;;;;;;;;;;4297059;33;20159;-84
2021/07/22 16:10:31;;;;;;;31.37;13.10;;;;;;;;;;4288097;33;20044;-85
2021/07/22 16:13:01;;;;;;;45.83;16.80;;;;;;;;;;4295839;33;20129;-85
2021/07/22 16:15:31;;;;;;;35.35;28.73;;;;;;;;;;4295776;33;20502;-84
2021/07/22 16:18:01;;;;;;;43.45;37.85;;;;;;;;;;4301577;33;20144;-84
2021/07/22 16:20:30;;;;;;;63.45;58.60;;;;;;;;;;4297201;33;20163;-84
2021/07/22 16:22:59;;;;;;;44.58;18.25;;;;;;;;;;4299898;33;20428;-84
2021/07/22 16:25:28;;;;;;;29.05;25.70;;;;;;;;;;4301506;33;20053;-84
2021/07/22 16:27:57;;;;;;;25.40;13.93;;;;;;;;;;4297221;33;20199;-85
2021/07/22 16:30:26;;;;;;;50.35;45.95;;;;;;;;;;4297554;33;20052;-84
2021/07/22 16:32:54;;;;;;;47.33;43.53;;;;;;;;;;4299768;33;20095;-85
2021/07/22 16:35:24;;;;;;;28.60;25.50;;;;;;;;;;4301616;33;20037;-85
2021/07/22 16:37:58;;;;;;;24.83;14.38;;;;;;;;;;4299934;33;20444;-86
2021/07/22 16:40:28;;;;;;;21.30;11.10;;;;;;;;;;4301439;33;20074;-84
2021/07/22 16:42:57;;;;;;;21.27;13.45;;;;;;;;;;4285821;33;20112;-84
2021/07/22 16:45:26;;;;;;;26.83;16.25;;;;;;;;;;4300216;33;20442;-84
2021/07/22 16:47:55;;;;;;;31.00;26.23;;;;;;;;;;4302081;33;20140;-84
2021/07/22 16:50:29;;;;;;;39.58;34.95;;;;;;;;;;4303047;33;20120;-85
2021/07/22 16:52:58;;;;;;;37.35;30.77;;;;;;;;;;4280086;33;20123;-84
2021/07/22 16:55:27;;;;;;;47.25;39.70;;;;;;;;;;4294099;33;20236;-84
2021/07/22 16:57:55;;;;;;;41.47;36.10;;;;;;;;;;4293288;33;20100;-84
2021/07/22 17:00:24;;;;;;;48.65;42.08;;;;;;;;;;4283932;33;20435;-85
2021/07/22 17:02:53;;;;;;;53.95;43.17;;;;;;;;;;4297570;33;20106;-86
2021/07/22 17:05:21;;;;;;;40.08;34.80;;;;;;;;;;4303140;33;20139;-84
2021/07/22 17:07:50;;;;;;;64.15;54.72;;;;;;;;;;4301067;33;20053;-84
2021/07/22 17:10:19;;;;;;;50.00;43.03;;;;;;;;;;4298426;33;20448;-85
2021/07/22 17:12:47;;;;;;;68.40;54.47;;;;;;;;;;4297785;33;20052;-84
2021/07/22 17:15:16;;;;;;;81.97;71.12;;;;;;;;;;4299939;33;20053;-84
2021/07/22 17:17:45;;;;;;;196.48;173.95;;;;;;;;;;4304075;33;20072;-84
2021/07/22 17:20:13;;;;;;;213.15;187.57;;;;;;;;;;4304795;33;20075;-85
2021/07/22 17:22:45;;;;;;;77.70;66.10;;;;;;;;;;4297573;33;20044;-85
2021/07/22 17:25:14;;;;;;;91.82;71.40;;;;;;;;;;4298802;33;20061;-85
2021/07/22 17:27:43;;;;;;;107.00;80.75;;;;;;;;;;4296721;33;20619;-84
2021/07/22 17:30:13;;;;;;;132.50;89.65;;;;;;;;;;4296459;33;20075;-85
2021/07/22 17:32:42;;;;;;;163.98;100.07;;;;;;;;;;4299369;33;20045;-85
2021/07/22 17:35:10;;;;;;;163.73;105.07;;;;;;;;;;4300570;33;20084;-84
2021/07/22 17:37:39;;;;;;;196.57;106.18;;;;;;;;;;4302275;33;20531;-85
2021/07/22 17:40:09;;;;;;;197.87;105.60;;;;;;;;;;4298501;33;20158;-86
2021/07/22 17:42:37;;;;;;;176.50;98.25;;;;;;;;;;4286460;33;20412;-85
2021/07/22 17:45:06;;;;;;;171.32;96.75;;;;;;;;;;4298666;33;20037;-84
2021/07/22 17:47:35;;;;;;;202.35;106.60;;;;;;;;;;4281621;33;20128;-85
2021/07/22 17:50:04;;;;;;;156.90;107.85;;;;;;;;;;4287769;33;20040;-86
2021/07/22 17:52:33;;;;;;;150.68;101.87;;;;;;;;;;4299854;33;20079;-85
2021/07/22 17:55:04;;;;;;;153.48;103.60;;;;;;;;;;4297875;33;20396;-86
2021/07/22 17:57:33;;;;;;;156.18;108.97;;;;;;;;;;4295135;33;20108;-85
2021/07/22 18:00:01;;;;;;;161.95;112.93;;;;;;;;;;4293481;33;20424;-85
2021/07/22 18:02:31;;;;;;;184.15;105.55;;;;;;;;;;4296724;33;20075;-85
2021/07/22 18:05:02;;;;;;;195.85;107.03;;;;;;;;;;4299917;33;20069;-85
2021/07/22 18:07:32;;;;;;;208.27;114.62;;;;;;;;;;4293266;33;20146;-84
2021/07/22 18:10:01;;;;;;;171.00;95.15;;;;;;;;;;4307687;33;20485;-85
2021/07/22 18:12:29;;;;;;;212.48;126.95;;;;;;;;;;4297093;33;20154;-85
2021/07/22 18:14:58;;;;;;;186.93;109.50;;;;;;;;;;4299444;33;20845;-85
2021/07/22 18:17:27;;;;;;;187.80;112.80;;;;;;;;;;4302464;33;20060;-85
2021/07/22 18:19:56;;;;;;;194.07;114.18;;;;;;;;;;4305688;33;20084;-84
2021/07/22 18:22:24;;;;;;;235.43;133.02;;;;;;;;;;4301176;33;22322;-85
2021/07/22 18:24:53;;;;;;;241.90;134.75;;;;;;;;;;4282784;33;20479;-84
2021/07/22 18:27:21;;;;;;;160.70;110.05;;;;;;;;;;4290610;33;20586;-85
2021/07/22 18:29:51;;;;;;;168.00;108.50;;;;;;;;;;4303483;33;20044;-85
2021/07/22 18:32:41;;;;;;;151.10;106.95;;;;;;;;;;4295538;33;20120;-85
2021/07/22 18:35:16;;;;;;;141.82;98.93;;;;;;;;;;4263175;33;20053;-84
2021/07/22 18:37:45;;;;;;;127.47;91.80;;;;;;;;;;4301082;33;20451;-85
2021/07/22 18:40:16;;;;;;;179.48;100.65;;;;;;;;;;4305039;33;20168;-84
2021/07/22 18:42:45;;;;;;;157.45;91.85;;;;;;;;;;4297520;33;20559;-85
2021/07/22 18:45:14;;;;;;;159.93;92.40;;;;;;;;;;4302638;33;20128;-85
2021/07/22 18:47:42;;;;;;;155.93;91.05;;;;;;;;;;4290460;33;20187;-85
2021/07/22 18:50:11;;;;;;;155.18;92.70;;;;;;;;;;4301142;33;20033;-85
2021/07/22 18:52:43;;;;;;;152.18;91.60;;;;;;;;;;4300962;33;20037;-85
2021/07/22 18:55:12;;;;;;;164.13;93.37;;;;;;;;;;4297612;33;20104;-85
2021/07/22 18:57:43;;;;;;;151.93;86.35;;;;;;;;;;4297175;33;20065;-85
2021/07/22 19:00:13;;;;;;;139.85;75.40;;;;;;;;;;4296032;33;20132;-85
2021/07/22 19:02:44;;;;;;;145.73;85.25;;;;;;;;;;4299829;33;20307;-84
2021/07/22 19:05:13;;;;;;;127.25;84.90;;;;;;;;;;4307650;33;20053;-84
2021/07/22 19:07:41;;;;;;;130.87;83.28;;;;;;;;;;4307855;33;20148;-83
2021/07/22 19:10:11;;;;;;;124.62;81.65;;;;;;;;;;4302683;33;20087;-84